Time;durP1;ratioP1;P1;durP2;ratioP2;P2;SDS_P1;SDS_P2;PMS_P1;PMS_P2;Temp;Humidity;BMP_temperature;BMP_pressure;BME280_temperature;BME280_humidity;BME280_pressure;Samples;Min_cycle;Max_cycle;Signal;HPM_P1;HPM_P2
2022/03/02 00:02:16;;;;;;;8.88;2.88;;;20.80;99.90;;;;;;4976810;28;20030;-66
2022/03/02 00:04:43;;;;;;;11.77;1.83;;;20.70;99.90;;;;;;4976932;28;20113;-66
2022/03/02 00:07:10;;;;;;;6.93;1.75;;;20.70;99.90;;;;;;4977501;28;20057;-70
2022/03/02 00:09:38;;;;;;;5.35;1.70;;;20.70;99.90;;;;;;4975093;28;20544;-64
2022/03/02 00:12:05;;;;;;;14.02;3.97;;;20.50;99.90;;;;;;4977787;28;20030;-65
2022/03/02 00:14:32;;;;;;;11.52;7.47;;;20.50;99.90;;;;;;4977924;28;20501;-64
2022/03/02 00:16:59;;;;;;;25.67;20.98;;;20.40;99.90;;;;;;4975866;28;20101;-67
2022/03/02 00:19:26;;;;;;;13.77;4.22;;;20.30;99.90;;;;;;4977416;28;20026;-65
2022/03/02 00:21:54;;;;;;;10.48;5.85;;;20.40;99.90;;;;;;4976890;28;20034;-65
2022/03/02 00:24:22;;;;;;;3.00;1.30;;;20.30;99.90;;;;;;4975663;28;20080;-65
2022/03/02 00:26:49;;;;;;;4.72;2.88;;;20.30;99.90;;;;;;4977120;28;20038;-64
2022/03/02 00:29:16;;;;;;;4.03;1.20;;;20.30;99.90;;;;;;4975327;28;20033;-63
2022/03/02 00:31:44;;;;;;;3.95;1.27;;;20.30;99.90;;;;;;4974509;28;20030;-63
2022/03/02 00:34:10;;;;;;;4.47;2.22;;;20.30;99.90;;;;;;4979962;28;20389;-64
2022/03/02 00:36:37;;;;;;;2.70;1.83;;;20.30;99.90;;;;;;4977760;28;20038;-63
2022/03/02 00:39:05;;;;;;;2.85;1.00;;;20.30;99.90;;;;;;4976770;28;20046;-65
2022/03/02 00:41:33;;;;;;;1.45;0.98;;;20.30;99.90;;;;;;4977719;28;20408;-63
2022/03/02 00:44:01;;;;;;;2.53;1.20;;;20.30;99.90;;;;;;4975011;28;20264;-64
2022/03/02 00:46:29;;;;;;;2.50;1.02;;;20.30;99.90;;;;;;4978587;28;20161;-64
2022/03/02 00:49:00;;;;;;;2.22;0.75;;;20.30;99.90;;;;;;4975522;28;20092;-66
2022/03/02 00:51:28;;;;;;;1.85;1.10;;;20.30;99.90;;;;;;4977006;28;20035;-64
2022/03/02 00:53:56;;;;;;;2.00;0.90;;;20.30;99.90;;;;;;4978803;28;20097;-66
2022/03/02 00:56:23;;;;;;;2.42;0.85;;;20.30;99.90;;;;;;4975776;28;20655;-64
2022/03/02 00:58:50;;;;;;;4.43;3.20;;;20.40;99.90;;;;;;4974811;28;20054;-64
2022/03/02 01:01:17;;;;;;;3.30;1.80;;;20.40;99.90;;;;;;4978181;28;20084;-64
2022/03/02 01:03:44;;;;;;;5.13;2.13;;;20.50;99.90;;;;;;4977930;28;20014;-64
2022/03/02 01:06:12;;;;;;;3.80;1.80;;;20.50;99.90;;;;;;4973715;28;20568;-67
2022/03/02 01:08:38;;;;;;;5.97;1.70;;;20.60;99.90;;;;;;4975987;28;20086;-66
2022/03/02 01:11:05;;;;;;;6.80;2.13;;;20.50;99.90;;;;;;4976420;28;20102;-66
2022/03/02 01:13:33;;;;;;;8.35;2.90;;;20.60;99.90;;;;;;4977907;28;20033;-66
2022/03/02 01:16:00;;;;;;;8.48;2.17;;;20.60;99.90;;;;;;4975841;28;20117;-65
2022/03/02 01:18:27;;;;;;;13.10;5.00;;;20.60;99.90;;;;;;4978764;28;20022;-66
2022/03/02 01:20:54;;;;;;;9.15;2.60;;;20.60;99.90;;;;;;4979647;28;20072;-68
2022/03/02 01:23:21;;;;;;;8.00;2.55;;;20.60;99.90;;;;;;4981219;28;20101;-65
2022/03/02 01:25:48;;;;;;;4.57;1.60;;;20.60;99.90;;;;;;4978872;28;20022;-66
2022/03/02 01:28:15;;;;;;;4.30;1.35;;;20.50;99.90;;;;;;4979037;28;20037;-68
2022/03/02 01:30:42;;;;;;;7.53;2.45;;;20.30;99.90;;;;;;4979951;28;20018;-65
2022/03/02 01:33:09;;;;;;;6.65;1.40;;;20.20;99.90;;;;;;4980447;28;20031;-65
2022/03/02 01:35:36;;;;;;;7.03;2.60;;;20.10;99.90;;;;;;4980660;28;20519;-68
2022/03/02 01:38:03;;;;;;;4.10;1.42;;;20.00;99.90;;;;;;4979319;28;20069;-68
2022/03/02 01:40:30;;;;;;;7.10;1.67;;;19.90;99.90;;;;;;4979508;28;20027;-65
2022/03/02 01:42:57;;;;;;;8.18;2.92;;;19.80;99.90;;;;;;4982028;28;20108;-66
2022/03/02 01:45:24;;;;;;;5.15;2.50;;;19.70;99.90;;;;;;4978401;28;20110;-65
2022/03/02 01:47:51;;;;;;;8.70;2.45;;;19.70;99.90;;;;;;4980716;28;20021;-65
2022/03/02 01:50:18;;;;;;;6.93;2.30;;;19.70;99.90;;;;;;4980446;28;20026;-65
2022/03/02 01:52:46;;;;;;;6.88;2.38;;;19.60;99.90;;;;;;4983436;28;20018;-67
2022/03/02 01:55:14;;;;;;;10.00;2.58;;;19.70;99.90;;;;;;4977956;28;20041;-65
2022/03/02 01:57:42;;;;;;;5.78;2.05;;;19.70;99.90;;;;;;4979888;28;20041;-65
2022/03/02 02:00:13;;;;;;;7.22;1.75;;;19.70;99.90;;;;;;4979576;28;20034;-68
2022/03/02 02:02:40;;;;;;;7.90;2.00;;;19.80;99.90;;;;;;4980082;28;20026;-67
2022/03/02 02:05:08;;;;;;;8.40;1.95;;;19.80;99.90;;;;;;4979983;28;20399;-67
2022/03/02 02:07:35;;;;;;;7.60;1.85;;;19.80;99.90;;;;;;4985632;28;20429;-66
2022/03/02 02:10:03;;;;;;;6.53;2.00;;;19.80;99.90;;;;;;4984284;28;20056;-65
2022/03/02 02:12:30;;;;;;;10.60;1.98;;;19.90;99.90;;;;;;4981907;28;20073;-67
2022/03/02 02:14:57;;;;;;;7.05;2.28;;;20.00;99.90;;;;;;4983794;28;20026;-67
2022/03/02 02:17:24;;;;;;;6.35;2.15;;;20.00;99.90;;;;;;4984896;28;20026;-67
2022/03/02 02:19:51;;;;;;;9.25;2.15;;;20.00;99.90;;;;;;4986779;28;20027;-67
2022/03/02 02:22:18;;;;;;;10.52;2.97;;;20.10;99.90;;;;;;4985632;28;20034;-67
2022/03/02 02:24:45;;;;;;;8.38;2.13;;;20.10;99.90;;;;;;4975716;28;20106;-68
2022/03/02 02:27:16;;;;;;;8.90;2.25;;;20.20;99.90;;;;;;4981285;28;20030;-70
2022/03/02 02:29:44;;;;;;;4.53;1.60;;;20.20;99.90;;;;;;4988454;28;20029;-71
2022/03/02 02:32:11;;;;;;;7.00;2.30;;;20.30;99.90;;;;;;4986992;28;20049;-67
2022/03/02 02:34:38;;;;;;;10.18;2.72;;;20.30;99.90;;;;;;4981531;28;20026;-70
2022/03/02 02:37:07;;;;;;;11.15;3.92;;;20.30;99.90;;;;;;4986503;28;20050;-73
2022/03/02 02:39:36;;;;;;;7.20;2.20;;;20.40;99.90;;;;;;4981172;28;20026;-74
2022/03/02 02:42:06;;;;;;;7.55;3.30;;;20.40;99.90;;;;;;4982218;28;20014;-67
2022/03/02 02:44:34;;;;;;;21.90;12.23;;;20.40;99.90;;;;;;4982342;28;20027;-71
2022/03/02 02:47:01;;;;;;;19.45;14.48;;;20.40;99.90;;;;;;4982905;28;20073;-70
2022/03/02 02:49:29;;;;;;;16.75;11.15;;;20.50;99.90;;;;;;4984967;28;20022;-68
2022/03/02 02:51:57;;;;;;;16.52;10.45;;;20.40;99.90;;;;;;4982494;28;20187;-70
2022/03/02 02:54:24;;;;;;;13.77;7.70;;;20.50;99.90;;;;;;4984290;28;20024;-68
2022/03/02 02:56:51;;;;;;;11.20;7.85;;;20.50;99.90;;;;;;4982091;28;20094;-69
2022/03/02 02:59:18;;;;;;;12.88;8.20;;;20.40;99.90;;;;;;4985275;28;20058;-68
2022/03/02 03:01:45;;;;;;;16.35;7.45;;;20.40;99.90;;;;;;4982324;28;20026;-68
2022/03/02 03:04:12;;;;;;;9.80;5.47;;;20.50;99.90;;;;;;4977140;28;20081;-68
2022/03/02 03:06:39;;;;;;;7.25;4.50;;;20.50;99.90;;;;;;4983988;28;20034;-69
2022/03/02 03:09:06;;;;;;;6.95;1.80;;;20.50;99.90;;;;;;4980182;28;20050;-68
2022/03/02 03:11:33;;;;;;;4.57;2.17;;;20.50;99.90;;;;;;4978866;28;20389;-70
2022/03/02 03:14:06;;;;;;;4.90;1.77;;;20.50;99.90;;;;;;4985043;28;20041;-68
2022/03/02 03:16:33;;;;;;;4.80;1.77;;;20.60;99.90;;;;;;4977652;28;20034;-68
2022/03/02 03:19:00;;;;;;;7.18;1.90;;;20.60;99.90;;;;;;4986288;28;20022;-68
2022/03/02 03:21:28;;;;;;;6.38;1.75;;;20.60;99.90;;;;;;4979554;28;20014;-69
2022/03/02 03:23:55;;;;;;;4.55;2.95;;;20.70;99.90;;;;;;4981255;28;20301;-69
2022/03/02 03:26:22;;;;;;;4.85;1.77;;;20.70;99.90;;;;;;4981646;28;20031;-69
2022/03/02 03:28:50;;;;;;;4.40;1.77;;;20.70;99.90;;;;;;4984476;28;20298;-67
2022/03/02 03:31:17;;;;;;;8.43;2.03;;;20.70;99.90;;;;;;4979383;28;20129;-67
2022/03/02 03:33:44;;;;;;;4.88;1.23;;;20.70;99.90;;;;;;4981082;28;20025;-67
2022/03/02 03:36:11;;;;;;;4.97;1.55;;;20.70;99.90;;;;;;4982157;28;20034;-68
2022/03/02 03:38:38;;;;;;;4.55;1.48;;;20.60;99.90;;;;;;4983569;28;20026;-68
2022/03/02 03:41:05;;;;;;;7.85;2.05;;;20.60;99.90;;;;;;4977579;28;20533;-68
2022/03/02 03:43:33;;;;;;;7.57;1.90;;;20.60;99.90;;;;;;4980156;28;20448;-69
2022/03/02 03:46:00;;;;;;;6.00;2.35;;;20.60;99.90;;;;;;4977901;28;20041;-70
2022/03/02 03:48:27;;;;;;;8.75;2.08;;;20.60;99.90;;;;;;4978833;28;20469;-70
2022/03/02 03:50:54;;;;;;;6.00;2.17;;;20.50;99.90;;;;;;4974655;28;20022;-67
2022/03/02 03:53:21;;;;;;;9.52;2.25;;;20.50;99.90;;;;;;4980475;28;20058;-68
2022/03/02 03:55:48;;;;;;;8.68;2.08;;;20.50;99.90;;;;;;4980773;28;20196;-66
2022/03/02 03:58:15;;;;;;;6.50;2.15;;;20.50;99.90;;;;;;4985108;28;20038;-67
2022/03/02 04:00:42;;;;;;;8.07;2.00;;;20.50;99.90;;;;;;4980597;28;20110;-68
2022/03/02 04:03:10;;;;;;;8.35;3.15;;;20.50;99.90;;;;;;4980133;28;20049;-66
2022/03/02 04:05:37;;;;;;;8.60;2.80;;;20.50;99.90;;;;;;4981805;28;20425;-66
2022/03/02 04:08:04;;;;;;;6.90;3.00;;;20.40;99.90;;;;;;4983168;28;20028;-67
2022/03/02 04:10:31;;;;;;;12.13;2.83;;;20.50;99.90;;;;;;4982833;28;20393;-67
2022/03/02 04:12:58;;;;;;;8.70;3.30;;;20.50;99.90;;;;;;4977363;28;20390;-68
2022/03/02 04:15:25;;;;;;;10.32;3.05;;;20.50;99.90;;;;;;4979937;28;20039;-68
2022/03/02 04:17:52;;;;;;;14.40;2.55;;;20.50;99.90;;;;;;4976516;28;20041;-66
2022/03/02 04:20:19;;;;;;;9.05;2.97;;;20.50;99.90;;;;;;4978431;28;20026;-72
2022/03/02 04:22:47;;;;;;;13.05;2.72;;;20.50;99.90;;;;;;4982799;28;20026;-68
2022/03/02 04:25:14;;;;;;;16.20;5.40;;;20.50;99.90;;;;;;4980577;28;20042;-72
2022/03/02 04:27:41;;;;;;;11.38;3.67;;;20.50;99.90;;;;;;4982012;28;20038;-68
2022/03/02 04:30:09;;;;;;;13.80;3.05;;;20.50;99.90;;;;;;4974110;28;20026;-69
2022/03/02 04:32:37;;;;;;;12.60;2.53;;;20.40;99.90;;;;;;4976344;28;20544;-66
2022/03/02 04:35:06;;;;;;;7.63;2.15;;;20.40;99.90;;;;;;4977616;28;20069;-67
2022/03/02 04:37:33;;;;;;;6.93;1.80;;;20.30;99.90;;;;;;4978796;28;20048;-65
2022/03/02 04:40:00;;;;;;;5.95;1.85;;;20.30;99.90;;;;;;4975619;28;20213;-65
2022/03/02 04:42:27;;;;;;;7.70;1.90;;;20.30;99.90;;;;;;4976561;28;20025;-66
2022/03/02 04:44:54;;;;;;;12.07;2.50;;;20.30;99.90;;;;;;4978397;28;20054;-67
2022/03/02 04:47:21;;;;;;;14.75;2.90;;;20.20;99.90;;;;;;4982782;28;20041;-68
2022/03/02 04:49:48;;;;;;;8.90;2.45;;;20.20;99.90;;;;;;4981713;28;20037;-66
2022/03/02 04:52:15;;;;;;;8.45;2.95;;;20.20;99.90;;;;;;4986504;28;20030;-67
2022/03/02 04:57:27;;;;;;;6.82;1.85;;;20.20;99.90;;;;;;4981458;28;20551;-66
2022/03/02 04:59:54;;;;;;;10.27;2.38;;;20.30;99.90;;;;;;4988116;28;20100;-66
2022/03/02 05:02:22;;;;;;;7.80;2.85;;;20.30;99.90;;;;;;4980895;28;20033;-67
2022/03/02 05:04:49;;;;;;;9.20;2.33;;;20.30;99.90;;;;;;4983200;28;20101;-67
2022/03/02 05:07:17;;;;;;;7.47;1.85;;;20.40;99.90;;;;;;4987742;28;20026;-68
2022/03/02 05:09:44;;;;;;;7.65;2.25;;;20.40;99.90;;;;;;4987500;28;20109;-67
2022/03/02 05:12:11;;;;;;;7.95;2.08;;;20.40;99.90;;;;;;4981642;28;20117;-68
2022/03/02 05:14:38;;;;;;;6.68;1.90;;;20.50;99.90;;;;;;4985585;28;20725;-68
2022/03/02 05:17:05;;;;;;;8.52;2.80;;;20.50;99.90;;;;;;4983476;28;20037;-68
2022/03/02 05:19:33;;;;;;;11.93;2.83;;;20.60;99.90;;;;;;4984557;28;20080;-68
2022/03/02 05:22:00;;;;;;;10.05;2.85;;;20.70;99.90;;;;;;4985314;28;20022;-68
2022/03/02 05:24:27;;;;;;;9.20;2.60;;;20.80;99.90;;;;;;4986363;28;20034;-67
2022/03/02 05:26:54;;;;;;;9.52;2.58;;;20.80;99.90;;;;;;4986140;28;20454;-67
2022/03/02 05:29:21;;;;;;;10.90;2.97;;;20.90;99.90;;;;;;4986580;28;20052;-67
2022/03/02 05:31:48;;;;;;;10.65;2.88;;;20.90;99.90;;;;;;4983496;28;20122;-68
2022/03/02 05:34:15;;;;;;;12.60;2.97;;;20.90;99.90;;;;;;4985792;28;20114;-66
2022/03/02 05:36:42;;;;;;;10.35;4.82;;;20.90;99.90;;;;;;4987524;28;20041;-67
2022/03/02 05:39:09;;;;;;;12.85;4.75;;;20.90;99.90;;;;;;4987328;28;20066;-68
2022/03/02 05:41:36;;;;;;;18.50;4.03;;;20.90;99.90;;;;;;4984928;28;20062;-67
2022/03/02 05:44:03;;;;;;;19.00;9.05;;;20.80;99.90;;;;;;4984285;28;20069;-68
2022/03/02 05:46:30;;;;;;;13.18;3.47;;;20.80;99.90;;;;;;4980233;28;20033;-68
2022/03/02 05:48:57;;;;;;;16.85;4.35;;;20.80;99.90;;;;;;4984231;28;20034;-67
2022/03/02 05:51:24;;;;;;;13.27;4.78;;;20.70;99.90;;;;;;4987195;28;20034;-66
2022/03/02 05:53:51;;;;;;;13.50;3.25;;;20.70;99.90;;;;;;4986213;28;20029;-67
2022/03/02 05:56:18;;;;;;;8.20;2.10;;;20.70;99.90;;;;;;4982518;28;20321;-68
2022/03/02 05:58:45;;;;;;;9.20;2.60;;;20.70;99.90;;;;;;4984010;28;20373;-69
2022/03/02 06:01:12;;;;;;;11.70;3.15;;;20.60;99.90;;;;;;4982387;28;20817;-67
2022/03/02 06:03:39;;;;;;;9.30;3.72;;;20.60;99.90;;;;;;4980161;28;20033;-68
2022/03/02 06:06:06;;;;;;;9.27;3.22;;;20.70;99.90;;;;;;4985819;28;20107;-69
2022/03/02 06:08:33;;;;;;;9.18;2.72;;;20.70;99.90;;;;;;4980462;28;20117;-68
2022/03/02 06:11:00;;;;;;;6.75;2.10;;;20.70;99.90;;;;;;4978074;28;20387;-67
2022/03/02 06:13:27;;;;;;;12.70;3.33;;;20.70;99.90;;;;;;4977027;28;20022;-67
2022/03/02 06:15:55;;;;;;;7.53;1.95;;;20.70;99.90;;;;;;4984415;28;20042;-68
2022/03/02 06:18:22;;;;;;;7.80;2.88;;;20.70;99.90;;;;;;4983177;28;20117;-72
2022/03/02 06:20:52;;;;;;;9.70;2.28;;;20.80;99.90;;;;;;4984066;28;20414;-70
2022/03/02 06:23:22;;;;;;;7.82;2.13;;;20.80;99.90;;;;;;4984213;28;20597;-70
2022/03/02 06:25:50;;;;;;;11.15;3.35;;;20.80;99.90;;;;;;4981683;28;20034;-69
2022/03/02 06:28:17;;;;;;;11.18;3.10;;;20.90;99.90;;;;;;4983452;28;20022;-69
2022/03/02 06:30:44;;;;;;;6.85;3.13;;;20.90;99.90;;;;;;4982112;28;20022;-70
2022/03/02 06:33:15;;;;;;;12.73;3.13;;;20.90;99.90;;;;;;4982943;28;20386;-68
2022/03/02 06:35:42;;;;;;;13.00;2.63;;;20.90;99.90;;;;;;4982437;28;20030;-69
2022/03/02 06:38:09;;;;;;;9.40;2.88;;;20.90;99.90;;;;;;4984645;28;20057;-72
2022/03/02 06:40:37;;;;;;;11.75;2.40;;;20.80;99.90;;;;;;4982892;28;20489;-67
2022/03/02 06:43:07;;;;;;;7.30;2.58;;;20.70;99.90;;;;;;4982653;28;20022;-69
2022/03/02 06:45:49;;;;;;;9.07;2.22;;;20.60;99.90;;;;;;4985259;28;20050;-69
2022/03/02 06:48:27;;;;;;;8.27;2.13;;;20.60;99.90;;;;;;4982911;28;20030;-69
2022/03/02 06:50:56;;;;;;;6.30;2.05;;;20.60;99.90;;;;;;4981152;28;20149;-69
2022/03/02 06:53:35;;;;;;;11.45;2.47;;;20.60;99.90;;;;;;4981053;28;20026;-72
2022/03/02 06:56:05;;;;;;;7.20;2.22;;;20.60;99.90;;;;;;4979850;28;20500;-70
2022/03/02 06:58:42;;;;;;;10.32;2.53;;;20.50;99.90;;;;;;4979842;28;20041;-69
2022/03/02 07:01:14;;;;;;;11.15;3.13;;;20.50;99.90;;;;;;4979172;28;20540;-73
2022/03/02 07:03:49;;;;;;;14.30;3.20;;;20.50;99.90;;;;;;4978507;28;20465;-69
2022/03/02 07:06:19;;;;;;;9.93;3.60;;;20.50;99.90;;;;;;4979561;28;20042;-71
2022/03/02 07:08:48;;;;;;;11.40;4.20;;;20.50;99.90;;;;;;4979018;28;20615;-70
2022/03/02 07:11:16;;;;;;;13.13;4.95;;;20.50;99.90;;;;;;4977795;28;20507;-73
2022/03/02 07:13:48;;;;;;;10.07;4.32;;;20.50;99.90;;;;;;4977243;28;20298;-69
2022/03/02 07:16:18;;;;;;;13.82;3.78;;;20.50;99.90;;;;;;4974590;28;20212;-70
2022/03/02 07:18:45;;;;;;;9.02;2.65;;;20.50;99.90;;;;;;4978908;28;20607;-67
2022/03/02 07:21:15;;;;;;;13.00;3.28;;;20.50;99.90;;;;;;4977714;28;20582;-69
2022/03/02 07:24:13;;;;;;;8.00;2.85;;;20.60;99.90;;;;;;4978422;28;20030;-69
2022/03/02 07:26:45;;;;;;;11.65;2.67;;;20.50;99.90;;;;;;4976871;28;20026;-69
2022/03/02 07:29:14;;;;;;;9.90;3.00;;;20.50;99.90;;;;;;4978427;28;20065;-69
2022/03/02 07:31:43;;;;;;;11.73;3.40;;;20.40;99.90;;;;;;4977777;28;20030;-69
2022/03/02 07:34:14;;;;;;;9.27;3.72;;;20.50;99.90;;;;;;4975841;28;20041;-71
2022/03/02 07:36:43;;;;;;;4.32;2.10;;;20.40;99.90;;;;;;4977244;28;20412;-73
2022/03/02 07:39:10;;;;;;;3.17;1.60;;;20.40;99.90;;;;;;4976858;28;20508;-67
2022/03/02 07:41:38;;;;;;;5.57;1.95;;;20.50;99.90;;;;;;4976863;28;20033;-69
2022/03/02 07:44:06;;;;;;;4.00;1.65;;;20.40;99.90;;;;;;4976153;28;20045;-69
2022/03/02 07:46:33;;;;;;;2.85;1.60;;;20.50;99.90;;;;;;4981048;28;20033;-66
2022/03/02 07:49:01;;;;;;;2.92;1.20;;;20.40;99.90;;;;;;4978781;28;20636;-67
2022/03/02 07:51:28;;;;;;;5.30;2.05;;;20.40;99.90;;;;;;4978065;28;20724;-68
2022/03/02 07:54:03;;;;;;;5.43;1.88;;;20.40;99.90;;;;;;4974870;28;20030;-70
2022/03/02 07:56:33;;;;;;;4.82;1.70;;;20.40;99.90;;;;;;4972298;28;20038;-69
2022/03/02 07:59:08;;;;;;;7.95;2.15;;;20.50;99.90;;;;;;4973365;28;20023;-70
2022/03/02 08:01:37;;;;;;;5.05;1.95;;;20.50;99.90;;;;;;4973913;28;20060;-67
2022/03/02 08:04:07;;;;;;;5.22;2.40;;;20.50;99.90;;;;;;4974964;28;20557;-70
2022/03/02 08:06:39;;;;;;;5.47;1.95;;;20.50;99.90;;;;;;4975581;28;20611;-67
2022/03/02 08:09:07;;;;;;;4.03;1.58;;;20.50;99.90;;;;;;4978818;28;20030;-69
2022/03/02 08:11:40;;;;;;;5.28;1.83;;;20.50;99.90;;;;;;4976430;28;20528;-68
2022/03/02 08:14:08;;;;;;;6.63;1.85;;;20.50;99.90;;;;;;4976972;28;20026;-72
2022/03/02 08:16:35;;;;;;;4.28;1.77;;;20.50;99.90;;;;;;4969699;28;20034;-71
2022/03/02 08:19:03;;;;;;;6.78;1.75;;;20.50;99.90;;;;;;4977665;28;20065;-68
2022/03/02 08:21:32;;;;;;;5.38;1.77;;;20.40;99.90;;;;;;4976801;28;20043;-68
2022/03/02 08:24:04;;;;;;;4.90;1.40;;;20.40;99.90;;;;;;4976219;28;20038;-72
2022/03/02 08:26:33;;;;;;;4.70;1.30;;;20.40;99.90;;;;;;4977589;28;20042;-70
2022/03/02 08:29:04;;;;;;;4.97;1.42;;;20.40;99.90;;;;;;4975519;28;20026;-68
2022/03/02 08:31:35;;;;;;;4.50;1.20;;;20.30;99.90;;;;;;4975615;28;20355;-71
2022/03/02 08:34:03;;;;;;;6.35;1.85;;;20.30;99.90;;;;;;4974030;28;20093;-74
2022/03/02 08:36:34;;;;;;;3.53;1.60;;;20.30;99.90;;;;;;4974715;28;20042;-72
2022/03/02 08:39:13;;;;;;;6.63;1.75;;;20.30;99.90;;;;;;4973873;28;20023;-66
2022/03/02 08:41:40;;;;;;;5.63;1.58;;;20.40;99.90;;;;;;4975645;28;20026;-72
2022/03/02 08:44:11;;;;;;;8.10;2.28;;;20.30;99.90;;;;;;4977753;28;20057;-67
2022/03/02 08:46:39;;;;;;;4.18;1.60;;;20.30;99.90;;;;;;4974653;28;20035;-67
2022/03/02 08:49:06;;;;;;;7.88;2.67;;;20.40;99.90;;;;;;4974512;28;20583;-71
2022/03/02 08:51:35;;;;;;;10.32;2.50;;;20.30;99.90;;;;;;4974861;28;20077;-68
2022/03/02 08:54:04;;;;;;;6.10;1.75;;;20.40;99.90;;;;;;4977167;28;20034;-70
2022/03/02 08:56:37;;;;;;;7.45;1.88;;;20.40;99.90;;;;;;4978310;28;20042;-67
2022/03/02 08:59:05;;;;;;;5.90;2.60;;;20.40;99.90;;;;;;4976551;28;20050;-69
2022/03/02 09:01:32;;;;;;;5.45;1.92;;;20.40;99.90;;;;;;4976249;28;20034;-70
2022/03/02 09:04:01;;;;;;;7.53;2.03;;;20.40;99.90;;;;;;4977242;28;20444;-73
2022/03/02 09:06:29;;;;;;;6.20;2.00;;;20.40;99.90;;;;;;4978595;28;20035;-69
2022/03/02 09:08:56;;;;;;;6.13;1.50;;;20.30;99.90;;;;;;4977887;28;20030;-72
2022/03/02 09:11:24;;;;;;;7.60;1.38;;;20.30;99.90;;;;;;4973456;28;20033;-73
2022/03/02 09:13:51;;;;;;;4.60;1.15;;;20.20;99.90;;;;;;4976449;28;20027;-69
2022/03/02 09:16:18;;;;;;;4.07;1.42;;;20.00;99.90;;;;;;4973138;28;20097;-72
2022/03/02 09:18:47;;;;;;;4.60;1.10;;;19.90;99.90;;;;;;4967767;28;20639;-71
2022/03/02 09:21:19;;;;;;;3.17;1.63;;;19.80;99.90;;;;;;4972307;28;20026;-68
2022/03/02 09:23:47;;;;;;;6.03;1.35;;;19.80;99.90;;;;;;4974129;28;20047;-70
2022/03/02 09:26:16;;;;;;;3.25;1.05;;;19.80;99.90;;;;;;4976850;28;20030;-68
2022/03/02 09:28:46;;;;;;;6.10;1.55;;;19.80;99.90;;;;;;4971471;28;20456;-69
2022/03/02 09:31:15;;;;;;;4.38;1.23;;;19.80;99.90;;;;;;4976706;28;20035;-68
2022/03/02 09:33:53;;;;;;;5.80;1.80;;;19.80;99.90;;;;;;4975548;28;20718;-66
2022/03/02 09:36:23;;;;;;;6.18;1.63;;;19.80;99.90;;;;;;4979907;28;20042;-71
2022/03/02 09:38:51;;;;;;;3.85;1.50;;;19.80;99.90;;;;;;4981367;28;20022;-69
2022/03/02 09:41:39;;;;;;;4.72;1.38;;;19.80;99.90;;;;;;4990458;28;20026;-72
2022/03/02 09:44:06;;;;;;;6.53;1.35;;;19.80;99.90;;;;;;4982681;28;20026;-69
2022/03/02 09:46:39;;;;;;;7.93;2.17;;;19.80;99.90;;;;;;4981706;28;20026;-70
2022/03/02 09:49:09;;;;;;;5.32;1.70;;;19.80;99.90;;;;;;4979961;28;20026;-69
2022/03/02 09:51:38;;;;;;;5.43;1.60;;;19.80;99.90;;;;;;4980593;28;20042;-65
2022/03/02 09:54:05;;;;;;;8.07;2.03;;;19.80;99.90;;;;;;4981895;28;20034;-67
2022/03/02 09:56:35;;;;;;;5.88;2.33;;;19.80;99.90;;;;;;4982932;28;20030;-68
2022/03/02 09:59:08;;;;;;;4.97;1.83;;;19.80;99.90;;;;;;4984142;28;20084;-69
2022/03/02 10:01:35;;;;;;;;;;;19.80;99.90;;;;;;4983843;28;20568;-74
2022/03/02 10:04:22;;;;;;;7.20;1.85;;;19.80;99.90;;;;;;4982316;28;19913;-67
2022/03/02 10:09:48;;;;;;;11.32;2.30;;;19.90;99.90;;;;;;4978829;28;20041;-69
2022/03/02 10:12:20;;;;;;;12.10;2.17;;;19.90;99.90;;;;;;4980857;28;20066;-70
2022/03/02 10:14:49;;;;;;;11.23;2.60;;;19.80;99.90;;;;;;4984446;28;20022;-68
2022/03/02 10:17:20;;;;;;;10.15;2.10;;;19.90;99.90;;;;;;4974065;28;20044;-67
2022/03/02 10:19:55;;;;;;;8.45;2.00;;;19.90;99.90;;;;;;4978901;28;20022;-74
2022/03/02 10:22:28;;;;;;;8.85;2.63;;;19.90;99.90;;;;;;4974698;28;20105;-73
2022/03/02 10:25:04;;;;;;;10.35;2.83;;;19.90;99.90;;;;;;4981321;28;20050;-68
2022/03/02 10:27:49;;;;;;;11.75;2.75;;;19.90;99.90;;;;;;4979806;28;20034;-68
2022/03/02 10:30:16;;;;;;;11.35;3.22;;;19.90;99.90;;;;;;4974084;28;20026;-64
2022/03/02 10:32:43;;;;;;;10.07;2.58;;;19.90;99.90;;;;;;4982404;28;20090;-68
2022/03/02 10:35:13;;;;;;;12.52;2.47;;;19.90;99.90;;;;;;4979343;28;20026;-70
2022/03/02 10:37:54;;;;;;;10.25;2.55;;;19.90;99.90;;;;;;5004704;23;20053;-66
2022/03/02 10:40:25;;;;;;;8.40;2.33;;;19.90;99.90;;;;;;4997018;28;20032;-65
2022/03/02 10:43:01;;;;;;;11.73;2.38;;;20.00;99.90;;;;;;5002624;28;20030;-67
2022/03/02 10:45:29;;;;;;;8.75;2.85;;;19.90;99.90;;;;;;5001823;28;20494;-63
2022/03/02 10:48:12;;;;;;;11.82;2.90;;;19.90;99.90;;;;;;4996994;28;20033;-71
2022/03/02 10:50:39;;;;;;;;;;;20.00;99.90;;;;;;5001022;28;20106;-68
2022/03/02 10:53:13;;;;;;;7.80;2.40;;;20.00;99.90;;;;;;4998273;28;20372;-70
2022/03/02 10:55:45;;;;;;;11.15;2.85;;;20.00;99.90;;;;;;4995891;28;20429;-72
2022/03/02 10:58:15;;;;;;;9.85;2.45;;;20.00;99.90;;;;;;4998277;28;20033;-64
2022/03/02 11:00:43;;;;;;;10.73;3.17;;;20.00;99.90;;;;;;5000382;28;20479;-71
2022/03/02 11:03:11;;;;;;;11.30;2.50;;;20.00;99.90;;;;;;4998288;28;20017;-67
2022/03/02 11:05:38;;;;;;;7.90;3.03;;;20.00;99.90;;;;;;4997836;28;20026;-67
2022/03/02 11:08:05;;;;;;;7.45;2.53;;;20.00;99.90;;;;;;4997323;28;20410;-70
2022/03/02 11:10:33;;;;;;;7.97;2.75;;;20.00;99.90;;;;;;4998348;28;20552;-68
2022/03/02 11:13:15;;;;;;;7.15;2.50;;;19.90;99.90;;;;;;5000510;28;20030;-66
2022/03/02 11:15:52;;;;;;;7.63;2.95;;;19.90;99.90;;;;;;5002610;28;20667;-69
2022/03/02 11:18:40;;;;;;;8.10;2.60;;;19.90;99.90;;;;;;5000842;28;20033;-67
2022/03/02 11:21:14;;;;;;;14.27;2.83;;;19.90;99.90;;;;;;4999058;28;20034;-67
2022/03/02 11:23:42;;;;;;;10.30;2.95;;;20.00;99.90;;;;;;5002497;28;20566;-68
2022/03/02 11:26:12;;;;;;;6.18;2.25;;;19.90;99.90;;;;;;5004262;28;20022;-66
2022/03/02 11:28:44;;;;;;;8.02;2.17;;;20.00;99.90;;;;;;4997293;28;20026;-73
2022/03/02 11:31:11;;;;;;;10.95;2.92;;;20.00;99.90;;;;;;5004926;28;20029;-72
2022/03/02 11:33:38;;;;;;;4.38;2.03;;;20.00;99.90;;;;;;5001073;28;20018;-72
2022/03/02 11:36:11;;;;;;;7.28;2.40;;;19.90;99.90;;;;;;5004947;28;20559;-72
2022/03/02 11:38:42;;;;;;;7.32;2.00;;;20.00;99.90;;;;;;5005297;28;20049;-73
2022/03/02 11:41:13;;;;;;;7.95;2.17;;;20.00;99.90;;;;;;5004401;28;20025;-73
2022/03/02 11:43:40;;;;;;;9.20;2.72;;;20.00;99.90;;;;;;5006671;28;20350;-72
2022/03/02 11:46:10;;;;;;;6.00;1.73;;;20.10;99.90;;;;;;5004835;28;20036;-70
2022/03/02 11:48:40;;;;;;;11.07;2.42;;;20.10;99.90;;;;;;5013168;28;20114;-71
2022/03/02 11:51:21;;;;;;;8.63;2.35;;;20.00;99.90;;;;;;5005780;28;20045;-68
2022/03/02 11:53:59;;;;;;;6.97;2.83;;;20.00;99.90;;;;;;5005054;28;20345;-73
2022/03/02 11:56:29;;;;;;;5.47;2.10;;;20.00;99.90;;;;;;5000891;28;20444;-74
2022/03/02 11:59:06;;;;;;;11.23;3.03;;;20.00;99.90;;;;;;5004738;28;20058;-68
2022/03/02 12:01:44;;;;;;;8.52;1.92;;;20.10;99.90;;;;;;5006523;28;20497;-70
2022/03/02 12:04:14;;;;;;;4.55;1.80;;;20.10;99.90;;;;;;5001678;28;20068;-69
2022/03/02 12:06:51;;;;;;;6.55;1.98;;;20.10;99.90;;;;;;5005848;28;20049;-72
2022/03/02 12:09:23;;;;;;;5.43;1.70;;;20.00;99.90;;;;;;5004762;28;20041;-72
2022/03/02 12:11:51;;;;;;;5.75;2.17;;;20.00;99.90;;;;;;5004672;28;20192;-71
2022/03/02 12:14:18;;;;;;;10.45;3.28;;;20.00;99.90;;;;;;5005006;28;20045;-70
2022/03/02 12:16:47;;;;;;;17.70;4.18;;;20.10;99.90;;;;;;5004680;28;20033;-71
2022/03/02 12:19:25;;;;;;;13.02;3.58;;;20.10;99.90;;;;;;5007418;28;20058;-73
2022/03/02 12:22:06;;;;;;;12.18;3.95;;;20.20;99.90;;;;;;5006022;28;20036;-68
2022/03/02 12:24:35;;;;;;;10.65;3.30;;;20.20;99.90;;;;;;5013732;28;20113;-67
2022/03/02 12:27:06;;;;;;;15.98;3.30;;;20.20;99.90;;;;;;5012253;28;20021;-69
2022/03/02 12:29:37;;;;;;;10.13;3.05;;;20.10;99.90;;;;;;5005152;28;20029;-69
2022/03/02 12:32:15;;;;;;;9.18;3.20;;;20.00;99.90;;;;;;5010309;28;20026;-71
2022/03/02 12:34:49;;;;;;;14.73;5.05;;;20.10;99.90;;;;;;5008168;28;20026;-68
2022/03/02 12:37:17;;;;;;;11.48;3.20;;;20.20;99.90;;;;;;5007614;28;20391;-72
2022/03/02 12:39:45;;;;;;;18.42;5.22;;;20.10;99.90;;;;;;5009442;28;20022;-67
2022/03/02 12:42:12;;;;;;;14.85;3.80;;;20.20;99.90;;;;;;5008323;28;20071;-73
2022/03/02 12:44:42;;;;;;;12.23;3.92;;;20.20;99.90;;;;;;5008167;28;20022;-69
2022/03/02 12:47:12;;;;;;;7.38;3.20;;;20.20;99.90;;;;;;5007767;28;20044;-68
2022/03/02 12:49:41;;;;;;;6.72;2.40;;;20.20;99.90;;;;;;5007586;28;20388;-68
2022/03/02 12:52:09;;;;;;;7.05;2.40;;;20.30;99.90;;;;;;5007968;28;20033;-68
2022/03/02 12:54:39;;;;;;;5.40;2.20;;;20.20;99.90;;;;;;5009960;28;20061;-72
2022/03/02 12:57:09;;;;;;;5.63;2.20;;;20.20;99.90;;;;;;5013761;28;20643;-73
2022/03/02 12:59:37;;;;;;;5.38;2.00;;;20.30;99.90;;;;;;5007571;28;20026;-68